Orlando, FL (32801)

7:19 AM EDT on July 28, 2015 (GMT -0400)
Lake Como | | Change Station
CLOSE
Current Station
Personal Weather Station
Location: Orlando, FL
Elevation: 154 ft
Nearby Weather Stations

Elev 154 ft 28.54 °N, 81.35 °W | Updated 14 seconds ago

Overcast
Overcast
77.9 °F
Feels Like 80 °F
N
1.1
Wind Variable Wind from SSE

Today
High -- | Low -- °F
--% Chance of Precip.
Yesterday
High -- | Low -- °F
Precip. -- in
6:44 AM 8:18 PM
Waxing Gibbous, 89% visible
Pressure 29.96 in
Visibility 10.0 miles
Clouds Mostly Cloudy 1500 ft
Mostly Cloudy 2300 ft
Overcast 2700 ft
Heat Index 80 °F
Dew Point 74 °F
Humidity 87%
Rainfall 0.00 in
Snow Depth Not available.
UV 0 out of 12
Pollen .60 out of 12
Air Quality Not available.
Flu Activity Not available.
METAR KORL 281053Z 21011KT 10SM BKN015 BKN023 OVC027 26/24 A2995 RMK AO2 SLP144 T02610244

More Conditions Fewer Conditions

Pressure 29.96 in
Visibility 10.0 miles
Clouds Mostly Cloudy 1500 ft
Mostly Cloudy 2300 ft
Overcast 2700 ft
Heat Index 80 °F
Dew Point 74 °F
Humidity 87%
Rainfall 0.00 in
Snow Depth Not available.
UV 0 out of 12
Pollen .60 out of 12
Air Quality Not available.
Flu Activity Not available.
METAR KORL 281053Z 21011KT 10SM BKN015 BKN023 OVC027 26/24 A2995 RMK AO2 SLP144 T02610244

More Conditions Fewer Conditions

Nowcast | as of 5:30 am EDT on July 28, 2015

A weak area of low pressure near Cedar Key was producing a continued moist...south to southwest wind flow. An area of showers and thunderstorms in the Gulf of Mexico...to the south of the low...was moving slowly eastward early this morning. Some light showers will reach inland...mainly into Southern Lake County and south Metro Orlando. Additional details...including graphics are available online at: http://www.Srh.NOAA.Gov/mlb/blog.Php

×

10-Day Weather Forecast

×

Almanac

Astronomy

Jul. 28, 2015 Rise Set
Actual Time
Civil Twilight
Nautical Twilight
Astronomical Twilight
Moon
Length of Visible Light
Length of Day
Tomorrow will be .
, % of the Moon is Illuminated

Today's Extremes

State Highs State Lows

Community

WunderPhotos

Upload Photos

1,841,806 photos uploaded!

WunderBlogs® & News

Nearby

Air Quality

  Air Quality AQ Index Pollutant
Not available.

Snow Depth

Station Depth Elevation

Earthquake Activity

City Distance Mag. Time & Date
Minimum magnitude displayed is 2.5.

Coastal Water Temperatures

Place Temperature

Stations

Nearby Weather Stations

Station Location Temp. Windchill Dew Point Humidity Wind Precip. Elev Updated Type